sensor_id;sensor_type;location;lat;lon;timestamp;pressure;altitude;pressure_sealevel;temperature;humidity
54262;BME280;40174;52.364;6.452;2022-08-06T00:01:51;102287.97;;;13.08;91.78
54262;BME280;40174;52.364;6.452;2022-08-06T00:04:18;102288.72;;;13.10;92.02
54262;BME280;40174;52.364;6.452;2022-08-06T00:06:45;102294.03;;;13.10;92.12
54262;BME280;40174;52.364;6.452;2022-08-06T00:09:12;102300.19;;;13.10;91.68
54262;BME280;40174;52.364;6.452;2022-08-06T00:11:40;102301.16;;;13.09;91.67
54262;BME280;40174;52.364;6.452;2022-08-06T00:14:07;102300.41;;;13.07;92.29
54262;BME280;40174;52.364;6.452;2022-08-06T00:16:34;102301.25;;;13.08;92.18
54262;BME280;40174;52.364;6.452;2022-08-06T00:19:01;102303.06;;;13.07;91.75
54262;BME280;40174;52.364;6.452;2022-08-06T00:21:27;102297.94;;;13.04;92.21
54262;BME280;40174;52.364;6.452;2022-08-06T00:23:54;102302.41;;;13.04;92.19
54262;BME280;40174;52.364;6.452;2022-08-06T00:26:21;102303.38;;;13.03;91.98
54262;BME280;40174;52.364;6.452;2022-08-06T00:28:51;102304.53;;;12.99;92.60
54262;BME280;40174;52.364;6.452;2022-08-06T00:31:17;102304.00;;;12.94;92.64
54262;BME280;40174;52.364;6.452;2022-08-06T00:33:45;102310.47;;;12.89;93.12
54262;BME280;40174;52.364;6.452;2022-08-06T00:36:11;102307.06;;;12.87;93.10
54262;BME280;40174;52.364;6.452;2022-08-06T00:38:38;102313.22;;;12.88;93.69
54262;BME280;40174;52.364;6.452;2022-08-06T00:41:05;102321.91;;;12.90;93.96
54262;BME280;40174;52.364;6.452;2022-08-06T00:43:32;102319.25;;;12.90;93.96
54262;BME280;40174;52.364;6.452;2022-08-06T00:46:00;102321.06;;;12.89;93.95
54262;BME280;40174;52.364;6.452;2022-08-06T00:48:27;102330.81;;;12.89;94.06
54262;BME280;40174;52.364;6.452;2022-08-06T00:50:53;102330.09;;;12.87;94.31
54262;BME280;40174;52.364;6.452;2022-08-06T00:53:20;102328.47;;;12.84;94.96
54262;BME280;40174;52.364;6.452;2022-08-06T00:55:46;102329.66;;;12.80;95.14
54262;BME280;40174;52.364;6.452;2022-08-06T00:58:13;102333.22;;;12.79;94.96
54262;BME280;40174;52.364;6.452;2022-08-06T01:00:39;102340.13;;;12.82;94.58
54262;BME280;40174;52.364;6.452;2022-08-06T01:03:07;102349.81;;;12.83;94.73
54262;BME280;40174;52.364;6.452;2022-08-06T01:05:35;102348.09;;;12.82;94.85
54262;BME280;40174;52.364;6.452;2022-08-06T01:08:02;102348.22;;;12.80;95.12
54262;BME280;40174;52.364;6.452;2022-08-06T01:10:29;102353.53;;;12.80;94.70
54262;BME280;40174;52.364;6.452;2022-08-06T01:12:56;102357.97;;;12.80;94.73
54262;BME280;40174;52.364;6.452;2022-08-06T01:15:22;102358.94;;;12.79;94.66
54262;BME280;40174;52.364;6.452;2022-08-06T01:17:52;102348.63;;;12.74;95.05
54262;BME280;40174;52.364;6.452;2022-08-06T01:20:31;102346.25;;;12.69;95.31
54262;BME280;40174;52.364;6.452;2022-08-06T01:23:07;102356.31;;;12.64;95.79
54262;BME280;40174;52.364;6.452;2022-08-06T01:25:50;102367.50;;;12.55;96.44
54262;BME280;40174;52.364;6.452;2022-08-06T01:28:25;102363.63;;;12.46;96.96
54262;BME280;40174;52.364;6.452;2022-08-06T01:30:58;102372.78;;;12.42;97.22
54262;BME280;40174;52.364;6.452;2022-08-06T01:33:29;102370.41;;;12.38;97.82
54262;BME280;40174;52.364;6.452;2022-08-06T01:36:00;102369.75;;;12.34;98.02
54262;BME280;40174;52.364;6.452;2022-08-06T01:38:31;102372.69;;;12.30;97.85
54262;BME280;40174;52.364;6.452;2022-08-06T01:41:03;102367.88;;;12.22;98.29
54262;BME280;40174;52.364;6.452;2022-08-06T01:43:33;102367.22;;;12.18;98.20
54262;BME280;40174;52.364;6.452;2022-08-06T01:46:02;102372.78;;;12.14;98.44
54262;BME280;40174;52.364;6.452;2022-08-06T01:48:30;102374.22;;;12.05;98.90
54262;BME280;40174;52.364;6.452;2022-08-06T01:51:01;102372.13;;;11.96;99.45
54262;BME280;40174;52.364;6.452;2022-08-06T01:53:32;102378.66;;;11.90;99.40
54262;BME280;40174;52.364;6.452;2022-08-06T01:56:00;102378.91;;;11.85;99.69
54262;BME280;40174;52.364;6.452;2022-08-06T01:58:32;102382.13;;;11.76;100.00
54262;BME280;40174;52.364;6.452;2022-08-06T02:01:02;102375.41;;;11.71;100.00
54262;BME280;40174;52.364;6.452;2022-08-06T02:03:38;102374.72;;;11.67;100.00
54262;BME280;40174;52.364;6.452;2022-08-06T02:06:06;102372.28;;;11.64;100.00
54262;BME280;40174;52.364;6.452;2022-08-06T02:08:34;102376.13;;;11.58;100.00
54262;BME280;40174;52.364;6.452;2022-08-06T02:11:05;102375.56;;;11.53;100.00
54262;BME280;40174;52.364;6.452;2022-08-06T02:13:35;102374.22;;;11.46;100.00
54262;BME280;40174;52.364;6.452;2022-08-06T02:16:05;102377.72;;;11.47;100.00
54262;BME280;40174;52.364;6.452;2022-08-06T02:18:35;102383.22;;;11.43;100.00
54262;BME280;40174;52.364;6.452;2022-08-06T02:21:06;102389.97;;;11.33;100.00
54262;BME280;40174;52.364;6.452;2022-08-06T02:23:34;102384.19;;;11.27;100.00
54262;BME280;40174;52.364;6.452;2022-08-06T02:26:02;102388.53;;;11.28;100.00
54262;BME280;40174;52.364;6.452;2022-08-06T02:28:32;102395.81;;;11.24;100.00
54262;BME280;40174;52.364;6.452;2022-08-06T02:31:01;102387.38;;;11.17;100.00
54262;BME280;40174;52.364;6.452;2022-08-06T02:33:28;102401.53;;;11.16;100.00
54262;BME280;40174;52.364;6.452;2022-08-06T02:36:01;102404.44;;;11.12;100.00
54262;BME280;40174;52.364;6.452;2022-08-06T02:38:34;102398.66;;;11.05;100.00
54262;BME280;40174;52.364;6.452;2022-08-06T02:41:11;102397.81;;;11.05;100.00
54262;BME280;40174;52.364;6.452;2022-08-06T02:43:47;102402.84;;;11.09;100.00
54262;BME280;40174;52.364;6.452;2022-08-06T02:46:21;102402.84;;;11.09;100.00
54262;BME280;40174;52.364;6.452;2022-08-06T02:48:52;102390.38;;;11.11;100.00
54262;BME280;40174;52.364;6.452;2022-08-06T02:51:27;102395.09;;;11.06;100.00
54262;BME280;40174;52.364;6.452;2022-08-06T02:53:59;102396.69;;;11.09;100.00
54262;BME280;40174;52.364;6.452;2022-08-06T02:56:29;102396.63;;;11.10;100.00
54262;BME280;40174;52.364;6.452;2022-08-06T02:58:58;102395.09;;;11.06;100.00
54262;BME280;40174;52.364;6.452;2022-08-06T03:01:31;102395.16;;;11.05;100.00
54262;BME280;40174;52.364;6.452;2022-08-06T03:04:00;102394.91;;;11.09;100.00
54262;BME280;40174;52.364;6.452;2022-08-06T03:06:30;102400.88;;;11.13;100.00
54262;BME280;40174;52.364;6.452;2022-08-06T03:09:00;102403.59;;;11.11;100.00
54262;BME280;40174;52.364;6.452;2022-08-06T03:11:29;102396.69;;;11.09;100.00
54262;BME280;40174;52.364;6.452;2022-08-06T03:13:58;102401.03;;;11.10;100.00
54262;BME280;40174;52.364;6.452;2022-08-06T03:16:29;102402.19;;;11.06;100.00
54262;BME280;40174;52.364;6.452;2022-08-06T03:18:58;102400.53;;;11.03;100.00
54262;BME280;40174;52.364;6.452;2022-08-06T03:21:26;102403.44;;;10.98;100.00
54262;BME280;40174;52.364;6.452;2022-08-06T03:23:53;102409.97;;;10.93;100.00
54262;BME280;40174;52.364;6.452;2022-08-06T03:26:21;102413.97;;;10.84;100.00
54262;BME280;40174;52.364;6.452;2022-08-06T03:28:48;102402.97;;;10.76;100.00
54262;BME280;40174;52.364;6.452;2022-08-06T03:31:16;102405.00;;;10.71;100.00
54262;BME280;40174;52.364;6.452;2022-08-06T03:33:44;102411.06;;;10.73;100.00
54262;BME280;40174;52.364;6.452;2022-08-06T03:36:11;102408.69;;;10.68;100.00
54262;BME280;40174;52.364;6.452;2022-08-06T03:38:41;102408.88;;;10.65;100.00
54262;BME280;40174;52.364;6.452;2022-08-06T03:41:10;102410.81;;;10.61;100.00
54262;BME280;40174;52.364;6.452;2022-08-06T03:43:38;102409.53;;;10.69;100.00
54262;BME280;40174;52.364;6.452;2022-08-06T03:46:05;102415.41;;;10.74;100.00
54262;BME280;40174;52.364;6.452;2022-08-06T03:48:35;102418.31;;;10.85;100.00
54262;BME280;40174;52.364;6.452;2022-08-06T03:51:06;102421.22;;;10.96;100.00
54262;BME280;40174;52.364;6.452;2022-08-06T03:53:38;102418.06;;;11.06;100.00
54262;BME280;40174;52.364;6.452;2022-08-06T03:56:09;102424.63;;;11.14;100.00
54262;BME280;40174;52.364;6.452;2022-08-06T03:58:38;102433.03;;;11.21;100.00
54262;BME280;40174;52.364;6.452;2022-08-06T04:01:08;102428.34;;;11.26;100.00
54262;BME280;40174;52.364;6.452;2022-08-06T04:03:36;102434.28;;;11.30;100.00
54262;BME280;40174;52.364;6.452;2022-08-06T04:06:05;102441.47;;;11.28;100.00
54262;BME280;40174;52.364;6.452;2022-08-06T04:08:35;102445.16;;;11.25;100.00
54262;BME280;40174;52.364;6.452;2022-08-06T04:11:04;102445.53;;;11.19;100.00
54262;BME280;40174;52.364;6.452;2022-08-06T04:13:32;102445.69;;;11.16;100.00
54262;BME280;40174;52.364;6.452;2022-08-06T04:15:59;102448.50;;;11.13;100.00
54262;BME280;40174;52.364;6.452;2022-08-06T04:18:31;102456.44;;;11.13;100.00
54262;BME280;40174;52.364;6.452;2022-08-06T04:21:00;102453.13;;;11.09;100.00
54262;BME280;40174;52.364;6.452;2022-08-06T04:23:30;102453.88;;;11.11;100.00
54262;BME280;40174;52.364;6.452;2022-08-06T04:26:00;102453.72;;;11.14;100.00
54262;BME280;40174;52.364;6.452;2022-08-06T04:28:29;102452.78;;;11.15;100.00
54262;BME280;40174;52.364;6.452;2022-08-06T04:30:58;102456.28;;;11.16;100.00
54262;BME280;40174;52.364;6.452;2022-08-06T04:33:26;102455.41;;;11.15;100.00
54262;BME280;40174;52.364;6.452;2022-08-06T04:35:53;102453.53;;;11.17;100.00
54262;BME280;40174;52.364;6.452;2022-08-06T04:38:22;102455.34;;;11.17;100.00
54262;BME280;40174;52.364;6.452;2022-08-06T04:40:51;102460.72;;;11.15;100.00
54262;BME280;40174;52.364;6.452;2022-08-06T04:43:19;102459.75;;;11.16;100.00
54262;BME280;40174;52.364;6.452;2022-08-06T04:45:46;102461.56;;;11.16;100.00
54262;BME280;40174;52.364;6.452;2022-08-06T04:48:14;102462.50;;;11.15;100.00
54262;BME280;40174;52.364;6.452;2022-08-06T04:50:41;102465.06;;;11.16;100.00
54262;BME280;40174;52.364;6.452;2022-08-06T04:53:10;102459.75;;;11.16;100.00
54262;BME280;40174;52.364;6.452;2022-08-06T04:55:37;102462.41;;;11.16;100.00
54262;BME280;40174;52.364;6.452;2022-08-06T04:58:07;102468.38;;;11.20;100.00
54262;BME280;40174;52.364;6.452;2022-08-06T05:00:35;102474.63;;;11.19;100.00
54262;BME280;40174;52.364;6.452;2022-08-06T05:03:02;102477.28;;;11.19;100.00
54262;BME280;40174;52.364;6.452;2022-08-06T05:05:31;102478.22;;;11.18;100.00
54262;BME280;40174;52.364;6.452;2022-08-06T05:08:00;102483.31;;;11.21;100.00
54262;BME280;40174;52.364;6.452;2022-08-06T05:10:32;102487.50;;;11.25;100.00
54262;BME280;40174;52.364;6.452;2022-08-06T05:13:00;102490.91;;;11.27;100.00
54262;BME280;40174;52.364;6.452;2022-08-06T05:15:32;102491.75;;;11.28;100.00
54262;BME280;40174;52.364;6.452;2022-08-06T05:18:02;102490.66;;;11.32;100.00
54262;BME280;40174;52.364;6.452;2022-08-06T05:20:33;102487.84;;;11.35;100.00
54262;BME280;40174;52.364;6.452;2022-08-06T05:23:02;102496.38;;;11.40;100.00
54262;BME280;40174;52.364;6.452;2022-08-06T05:25:30;102502.34;;;11.43;100.00
54262;BME280;40174;52.364;6.452;2022-08-06T05:27:59;102506.50;;;11.48;100.00
54262;BME280;40174;52.364;6.452;2022-08-06T05:30:26;102504.53;;;11.51;100.00
54262;BME280;40174;52.364;6.452;2022-08-06T05:32:54;102500.78;;;11.55;100.00
54262;BME280;40174;52.364;6.452;2022-08-06T05:35:20;102502.97;;;11.63;100.00
54262;BME280;40174;52.364;6.452;2022-08-06T05:37:47;102508.78;;;11.70;100.00
54262;BME280;40174;52.364;6.452;2022-08-06T05:40:13;102510.03;;;11.78;100.00
54262;BME280;40174;52.364;6.452;2022-08-06T05:42:40;102510.53;;;11.85;100.00
54262;BME280;40174;52.364;6.452;2022-08-06T05:45:10;102518.16;;;11.91;100.00
54262;BME280;40174;52.364;6.452;2022-08-06T05:47:39;102518.38;;;12.02;100.00
54262;BME280;40174;52.364;6.452;2022-08-06T05:50:13;102516.28;;;12.07;100.00
54262;BME280;40174;52.364;6.452;2022-08-06T05:52:47;102516.41;;;12.20;100.00
54262;BME280;40174;52.364;6.452;2022-08-06T05:55:18;102519.66;;;12.40;100.00
54262;BME280;40174;52.364;6.452;2022-08-06T05:57:49;102524.47;;;12.62;100.00
54262;BME280;40174;52.364;6.452;2022-08-06T06:00:19;102516.81;;;12.72;100.00
54262;BME280;40174;52.364;6.452;2022-08-06T06:02:48;102516.22;;;12.81;100.00
54262;BME280;40174;52.364;6.452;2022-08-06T06:05:18;102524.81;;;12.99;100.00
54262;BME280;40174;52.364;6.452;2022-08-06T06:07:46;102528.69;;;13.07;100.00
54262;BME280;40174;52.364;6.452;2022-08-06T06:10:14;102534.81;;;13.22;100.00
54262;BME280;40174;52.364;6.452;2022-08-06T06:12:42;102538.69;;;13.31;100.00
54262;BME280;40174;52.364;6.452;2022-08-06T06:15:12;102541.50;;;13.42;100.00
54262;BME280;40174;52.364;6.452;2022-08-06T06:17:56;102546.22;;;13.51;100.00
54262;BME280;40174;52.364;6.452;2022-08-06T06:20:33;102544.66;;;13.62;100.00
54262;BME280;40174;52.364;6.452;2022-08-06T06:23:08;102552.88;;;13.71;100.00
54262;BME280;40174;52.364;6.452;2022-08-06T06:25:42;102551.41;;;13.80;100.00
54262;BME280;40174;52.364;6.452;2022-08-06T06:28:16;102542.94;;;13.88;100.00
54262;BME280;40174;52.364;6.452;2022-08-06T06:30:50;102551.22;;;13.96;100.00
54262;BME280;40174;52.364;6.452;2022-08-06T06:33:22;102561.25;;;14.05;100.00
54262;BME280;40174;52.364;6.452;2022-08-06T06:35:55;102552.00;;;14.11;100.00
54262;BME280;40174;52.364;6.452;2022-08-06T06:38:31;102562.13;;;14.19;100.00
54262;BME280;40174;52.364;6.452;2022-08-06T06:41:06;102568.00;;;14.24;100.00
54262;BME280;40174;52.364;6.452;2022-08-06T06:43:40;102560.53;;;14.29;100.00
54262;BME280;40174;52.364;6.452;2022-08-06T06:46:15;102557.66;;;14.32;100.00
54262;BME280;40174;52.364;6.452;2022-08-06T06:48:46;102555.66;;;14.35;100.00
54262;BME280;40174;52.364;6.452;2022-08-06T06:51:20;102554.69;;;14.37;99.85
54262;BME280;40174;52.364;6.452;2022-08-06T06:53:51;102556.19;;;14.41;99.55
54262;BME280;40174;52.364;6.452;2022-08-06T06:56:23;102555.09;;;14.43;99.78
54262;BME280;40174;52.364;6.452;2022-08-06T06:58:52;102559.16;;;14.49;99.23
54262;BME280;40174;52.364;6.452;2022-08-06T07:01:22;102561.41;;;14.55;98.70
54262;BME280;40174;52.364;6.452;2022-08-06T07:03:51;102558.88;;;14.66;98.10
54262;BME280;40174;52.364;6.452;2022-08-06T07:06:20;102563.66;;;14.74;96.92
54262;BME280;40174;52.364;6.452;2022-08-06T07:08:48;102564.91;;;14.81;95.65
54262;BME280;40174;52.364;6.452;2022-08-06T07:11:19;102567.66;;;14.92;95.49
54262;BME280;40174;52.364;6.452;2022-08-06T07:13:47;102566.13;;;15.14;95.86
54262;BME280;40174;52.364;6.452;2022-08-06T07:16:20;102569.72;;;15.26;93.67
54262;BME280;40174;52.364;6.452;2022-08-06T07:18:48;102566.47;;;15.33;91.85
54262;BME280;40174;52.364;6.452;2022-08-06T07:21:17;102571.88;;;15.45;91.10
54262;BME280;40174;52.364;6.452;2022-08-06T07:23:47;102571.81;;;15.57;90.17
54262;BME280;40174;52.364;6.452;2022-08-06T07:26:17;102565.50;;;15.71;89.71
54262;BME280;40174;52.364;6.452;2022-08-06T07:28:45;102570.75;;;15.84;88.92
54262;BME280;40174;52.364;6.452;2022-08-06T07:31:12;102576.53;;;16.02;88.49
54262;BME280;40174;52.364;6.452;2022-08-06T07:33:41;102572.34;;;16.22;88.44
54262;BME280;40174;52.364;6.452;2022-08-06T07:36:08;102568.84;;;16.33;85.62
54262;BME280;40174;52.364;6.452;2022-08-06T07:38:40;102555.25;;;16.47;85.15
54262;BME280;40174;52.364;6.452;2022-08-06T07:41:10;102560.75;;;16.68;85.36
54262;BME280;40174;52.364;6.452;2022-08-06T07:43:42;102568.53;;;16.82;83.67
54262;BME280;40174;52.364;6.452;2022-08-06T07:46:10;102579.22;;;16.94;80.99
54262;BME280;40174;52.364;6.452;2022-08-06T07:48:41;102578.72;;;17.11;82.32
54262;BME280;40174;52.364;6.452;2022-08-06T07:51:10;102577.72;;;17.67;81.47
54262;BME280;40174;52.364;6.452;2022-08-06T07:53:39;102567.75;;;17.69;79.24
54262;BME280;40174;52.364;6.452;2022-08-06T07:56:09;102574.28;;;17.76;78.41
54262;BME280;40174;52.364;6.452;2022-08-06T07:58:36;102576.09;;;17.87;77.89
54262;BME280;40174;52.364;6.452;2022-08-06T08:01:04;102579.09;;;17.94;76.64
54262;BME280;40174;52.364;6.452;2022-08-06T08:03:32;102582.13;;;18.00;76.55
54262;BME280;40174;52.364;6.452;2022-08-06T08:06:17;102591.31;;;18.07;73.86
54262;BME280;40174;52.364;6.452;2022-08-06T08:08:47;102582.22;;;18.20;73.67
54262;BME280;40174;52.364;6.452;2022-08-06T08:11:17;102588.56;;;18.40;73.68
54262;BME280;40174;52.364;6.452;2022-08-06T08:13:44;102587.03;;;18.47;73.94
54262;BME280;40174;52.364;6.452;2022-08-06T08:16:13;102597.97;;;18.65;74.60
54262;BME280;40174;52.364;6.452;2022-08-06T08:18:41;102602.09;;;18.69;70.97
54262;BME280;40174;52.364;6.452;2022-08-06T08:21:09;102601.25;;;18.68;72.15
54262;BME280;40174;52.364;6.452;2022-08-06T08:23:38;102600.47;;;18.78;74.18
54262;BME280;40174;52.364;6.452;2022-08-06T08:26:05;102598.84;;;18.96;73.38
54262;BME280;40174;52.364;6.452;2022-08-06T08:28:33;102598.72;;;18.88;69.49
54262;BME280;40174;52.364;6.452;2022-08-06T08:31:00;102593.06;;;18.91;70.26
54262;BME280;40174;52.364;6.452;2022-08-06T08:33:29;102599.88;;;19.05;69.73
54262;BME280;40174;52.364;6.452;2022-08-06T08:35:56;102601.09;;;19.31;69.10
54262;BME280;40174;52.364;6.452;2022-08-06T08:38:23;102601.09;;;19.41;67.56
54262;BME280;40174;52.364;6.452;2022-08-06T08:40:50;102588.28;;;19.64;67.19
54262;BME280;40174;52.364;6.452;2022-08-06T08:43:19;102596.81;;;19.89;66.93
54262;BME280;40174;52.364;6.452;2022-08-06T08:45:49;102604.53;;;20.02;66.90
54262;BME280;40174;52.364;6.452;2022-08-06T08:48:22;102604.22;;;20.24;66.52
54262;BME280;40174;52.364;6.452;2022-08-06T08:50:49;102608.06;;;20.31;64.47
54262;BME280;40174;52.364;6.452;2022-08-06T08:53:24;102602.25;;;20.26;64.70
54262;BME280;40174;52.364;6.452;2022-08-06T08:55:55;102604.38;;;20.13;64.80
54262;BME280;40174;52.364;6.452;2022-08-06T08:58:22;102603.84;;;20.09;64.92
54262;BME280;40174;52.364;6.452;2022-08-06T09:00:51;102610.19;;;20.18;65.96
54262;BME280;40174;52.364;6.452;2022-08-06T09:03:18;102618.25;;;20.18;64.83
54262;BME280;40174;52.364;6.452;2022-08-06T09:05:45;102614.56;;;20.19;64.93
54262;BME280;40174;52.364;6.452;2022-08-06T09:08:11;102611.47;;;20.14;63.50
54262;BME280;40174;52.364;6.452;2022-08-06T09:10:38;102618.94;;;20.30;63.65
54262;BME280;40174;52.364;6.452;2022-08-06T09:13:04;102612.09;;;20.55;63.73
54262;BME280;40174;52.364;6.452;2022-08-06T09:15:31;102611.69;;;20.60;60.48
54262;BME280;40174;52.364;6.452;2022-08-06T09:17:59;102615.72;;;20.73;61.65
54262;BME280;40174;52.364;6.452;2022-08-06T09:20:25;102613.72;;;20.85;58.83
54262;BME280;40174;52.364;6.452;2022-08-06T09:22:52;102617.91;;;20.97;57.41
54262;BME280;40174;52.364;6.452;2022-08-06T09:25:35;102617.19;;;20.95;56.32
54262;BME280;40174;52.364;6.452;2022-08-06T09:28:03;102617.94;;;20.88;57.01
54262;BME280;40174;52.364;6.452;2022-08-06T09:30:29;102619.59;;;20.99;55.66
54262;BME280;40174;52.364;6.452;2022-08-06T09:32:58;102612.69;;;21.24;57.42
54262;BME280;40174;52.364;6.452;2022-08-06T09:35:27;102624.81;;;21.55;56.63
54262;BME280;40174;52.364;6.452;2022-08-06T09:38:00;102628.72;;;21.61;57.07
54262;BME280;40174;52.364;6.452;2022-08-06T09:40:27;102625.34;;;21.59;56.46
54262;BME280;40174;52.364;6.452;2022-08-06T09:42:54;102625.59;;;21.66;56.10
54262;BME280;40174;52.364;6.452;2022-08-06T09:45:22;102620.50;;;21.45;54.69
54262;BME280;40174;52.364;6.452;2022-08-06T09:48:01;102619.91;;;21.51;56.25
54262;BME280;40174;52.364;6.452;2022-08-06T09:50:41;102627.78;;;21.52;56.11
54262;BME280;40174;52.364;6.452;2022-08-06T09:53:09;102620.09;;;21.39;55.83
54262;BME280;40174;52.364;6.452;2022-08-06T09:55:35;102632.88;;;21.55;56.77
54262;BME280;40174;52.364;6.452;2022-08-06T09:58:02;102626.22;;;21.77;55.45
54262;BME280;40174;52.364;6.452;2022-08-06T10:00:30;102630.44;;;21.98;55.59
54262;BME280;40174;52.364;6.452;2022-08-06T10:02:58;102623.66;;;22.12;56.14
54262;BME280;40174;52.364;6.452;2022-08-06T10:05:27;102618.16;;;22.39;54.34
54262;BME280;40174;52.364;6.452;2022-08-06T10:08:07;102618.84;;;22.68;55.48
54262;BME280;40174;52.364;6.452;2022-08-06T10:10:43;102622.03;;;22.63;54.52
54262;BME280;40174;52.364;6.452;2022-08-06T10:13:16;102627.06;;;22.58;54.05
54262;BME280;40174;52.364;6.452;2022-08-06T10:15:43;102624.63;;;22.47;52.42
54262;BME280;40174;52.364;6.452;2022-08-06T10:18:17;102621.66;;;22.14;49.78
54262;BME280;40174;52.364;6.452;2022-08-06T10:21:05;102617.50;;;21.84;51.63
54262;BME280;40174;52.364;6.452;2022-08-06T10:23:32;102617.81;;;21.80;50.26
54262;BME280;40174;52.364;6.452;2022-08-06T10:26:01;102614.28;;;21.98;49.05
54262;BME280;40174;52.364;6.452;2022-08-06T10:28:29;102609.81;;;22.07;47.95
54262;BME280;40174;52.364;6.452;2022-08-06T10:30:58;102608.66;;;22.27;48.97
54262;BME280;40174;52.364;6.452;2022-08-06T10:33:28;102602.38;;;22.45;48.49
54262;BME280;40174;52.364;6.452;2022-08-06T10:35:59;102611.56;;;22.34;48.82
54262;BME280;40174;52.364;6.452;2022-08-06T10:38:29;102607.56;;;22.38;48.03
54262;BME280;40174;52.364;6.452;2022-08-06T10:40:59;102606.25;;;22.24;47.59
54262;BME280;40174;52.364;6.452;2022-08-06T10:43:28;102602.47;;;22.17;49.04
54262;BME280;40174;52.364;6.452;2022-08-06T10:45:55;102599.69;;;22.45;48.80
54262;BME280;40174;52.364;6.452;2022-08-06T10:48:23;102603.00;;;22.65;46.62
54262;BME280;40174;52.364;6.452;2022-08-06T10:50:50;102597.91;;;22.96;45.02
54262;BME280;40174;52.364;6.452;2022-08-06T10:53:17;102599.16;;;23.01;43.73
54262;BME280;40174;52.364;6.452;2022-08-06T10:55:46;102599.38;;;23.24;46.52
54262;BME280;40174;52.364;6.452;2022-08-06T10:58:12;102600.56;;;23.22;45.84
54262;BME280;40174;52.364;6.452;2022-08-06T11:00:40;102603.38;;;23.04;45.50
54262;BME280;40174;52.364;6.452;2022-08-06T11:03:14;102601.84;;;23.01;48.81
54262;BME280;40174;52.364;6.452;2022-08-06T11:05:42;102604.69;;;23.00;44.40
54262;BME280;40174;52.364;6.452;2022-08-06T11:08:31;102597.25;;;22.94;42.83
54262;BME280;40174;52.364;6.452;2022-08-06T11:11:17;102593.69;;;22.93;43.62
54262;BME280;40174;52.364;6.452;2022-08-06T11:13:54;102595.06;;;22.63;44.03
54262;BME280;40174;52.364;6.452;2022-08-06T11:16:26;102596.88;;;22.54;46.03
54262;BME280;40174;52.364;6.452;2022-08-06T11:19:01;102606.06;;;22.70;47.34
54262;BME280;40174;52.364;6.452;2022-08-06T11:21:36;102598.81;;;23.04;48.01
54262;BME280;40174;52.364;6.452;2022-08-06T11:24:04;102594.66;;;23.18;47.75
54262;BME280;40174;52.364;6.452;2022-08-06T11:26:35;102596.00;;;23.14;46.66
54262;BME280;40174;52.364;6.452;2022-08-06T11:29:02;102598.78;;;23.55;46.72
54262;BME280;40174;52.364;6.452;2022-08-06T11:31:43;102604.41;;;24.19;45.64
54262;BME280;40174;52.364;6.452;2022-08-06T11:34:12;102603.69;;;24.50;42.80
54262;BME280;40174;52.364;6.452;2022-08-06T11:36:54;102599.09;;;24.59;43.77
54262;BME280;40174;52.364;6.452;2022-08-06T11:39:23;102602.47;;;24.69;42.12
54262;BME280;40174;52.364;6.452;2022-08-06T11:41:56;102599.63;;;24.62;43.95
54262;BME280;40174;52.364;6.452;2022-08-06T11:44:25;102596.91;;;24.46;43.93
54262;BME280;40174;52.364;6.452;2022-08-06T11:47:07;102603.69;;;24.42;44.52
54262;BME280;40174;52.364;6.452;2022-08-06T11:49:36;102604.06;;;24.31;44.92
54262;BME280;40174;52.364;6.452;2022-08-06T11:52:03;102601.16;;;24.32;45.06
54262;BME280;40174;52.364;6.452;2022-08-06T11:54:30;102612.16;;;24.31;44.73
54262;BME280;40174;52.364;6.452;2022-08-06T11:57:19;102602.72;;;24.02;43.94
54262;BME280;40174;52.364;6.452;2022-08-06T12:00:05;102600.69;;;23.88;44.04
54262;BME280;40174;52.364;6.452;2022-08-06T12:02:48;102597.78;;;23.64;45.43
54262;BME280;40174;52.364;6.452;2022-08-06T12:05:40;102604.50;;;23.44;44.01
54262;BME280;40174;52.364;6.452;2022-08-06T12:08:15;102606.47;;;23.34;43.53
54262;BME280;40174;52.364;6.452;2022-08-06T12:13:44;102598.81;;;23.04;41.03
54262;BME280;40174;52.364;6.452;2022-08-06T12:16:28;102597.47;;;23.00;42.41
54262;BME280;40174;52.364;6.452;2022-08-06T12:18:55;102596.19;;;22.87;41.14
54262;BME280;40174;52.364;6.452;2022-08-06T12:21:22;102594.56;;;22.94;41.04
54262;BME280;40174;52.364;6.452;2022-08-06T12:23:50;102601.63;;;22.95;41.19
54262;BME280;40174;52.364;6.452;2022-08-06T12:26:17;102595.88;;;22.90;41.57
54262;BME280;40174;52.364;6.452;2022-08-06T12:28:48;102599.00;;;22.77;41.94
54262;BME280;40174;52.364;6.452;2022-08-06T12:31:28;102596.16;;;22.78;42.92
54262;BME280;40174;52.364;6.452;2022-08-06T12:33:55;102587.91;;;22.80;42.53
54262;BME280;40174;52.364;6.452;2022-08-06T12:36:25;102586.72;;;22.74;44.17
54262;BME280;40174;52.364;6.452;2022-08-06T12:38:53;102586.84;;;22.65;44.52
54262;BME280;40174;52.364;6.452;2022-08-06T12:41:21;102591.06;;;22.75;44.76
54262;BME280;40174;52.364;6.452;2022-08-06T12:43:48;102595.34;;;22.86;45.70
54262;BME280;40174;52.364;6.452;2022-08-06T12:46:15;102595.19;;;22.88;45.35
54262;BME280;40174;52.364;6.452;2022-08-06T12:48:45;102590.72;;;23.04;45.48
54262;BME280;40174;52.364;6.452;2022-08-06T12:51:12;102586.72;;;23.17;46.35
54262;BME280;40174;52.364;6.452;2022-08-06T12:53:40;102583.63;;;23.54;45.92
54262;BME280;40174;52.364;6.452;2022-08-06T12:56:10;102584.50;;;23.88;44.38
54262;BME280;40174;52.364;6.452;2022-08-06T12:58:40;102581.28;;;24.09;44.22
54262;BME280;40174;52.364;6.452;2022-08-06T13:01:10;102581.94;;;24.27;43.46
54262;BME280;40174;52.364;6.452;2022-08-06T13:03:43;102579.06;;;24.28;42.84